createdAt,value
2024-03-04T00:00:51.953Z,9.10
2024-03-04T00:03:20.097Z,9.10
2024-03-04T00:05:48.229Z,9.20
2024-03-04T00:08:16.420Z,9.20
2024-03-04T00:10:45.869Z,9.20
2024-03-04T00:13:14.059Z,9.20
2024-03-04T00:15:42.268Z,9.20
2024-03-04T00:18:10.311Z,9.20
2024-03-04T00:20:38.360Z,9.20
2024-03-04T00:23:07.135Z,9.20
2024-03-04T00:25:35.248Z,9.20
2024-03-04T00:28:05.231Z,9.20
2024-03-04T00:30:33.336Z,9.30
2024-03-04T00:33:01.348Z,9.30
2024-03-04T00:35:29.588Z,9.20
2024-03-04T00:37:57.752Z,9.20
2024-03-04T00:40:25.881Z,9.20
2024-03-04T00:42:54.355Z,9.30
2024-03-04T00:45:23.769Z,9.30
2024-03-04T00:47:51.853Z,9.30
2024-03-04T00:50:20.094Z,9.30
2024-03-04T00:52:48.116Z,9.30
2024-03-04T00:55:18.695Z,9.30
2024-03-04T00:57:46.976Z,9.30
2024-03-04T01:00:16.313Z,9.30
2024-03-04T01:02:45.925Z,9.30
2024-03-04T01:05:14.095Z,9.30
2024-03-04T01:07:42.221Z,9.30
2024-03-04T01:10:10.572Z,9.20
2024-03-04T01:12:38.929Z,9.30
2024-03-04T01:15:09.086Z,9.30
2024-03-04T01:17:37.475Z,9.20
2024-03-04T01:20:11.395Z,9.20
2024-03-04T01:22:40.699Z,9.20
2024-03-04T01:25:10.192Z,9.20
2024-03-04T01:27:38.262Z,9.20
2024-03-04T01:30:10.484Z,9.20
2024-03-04T01:32:38.792Z,9.30
2024-03-04T01:35:12.012Z,9.20
2024-03-04T01:37:41.669Z,9.20
2024-03-04T01:40:11.674Z,9.10
2024-03-04T01:42:39.663Z,9.10
2024-03-04T01:45:17.554Z,9.10
2024-03-04T01:47:45.749Z,9.10
2024-03-04T01:50:15.224Z,9.00
2024-03-04T01:52:43.263Z,9.00
2024-03-04T01:55:11.597Z,9.00
2024-03-04T01:57:40.296Z,9.00
2024-03-04T02:00:12.537Z,8.90
2024-03-04T02:02:42.531Z,8.90
2024-03-04T02:05:12.054Z,9.00
2024-03-04T02:07:42.919Z,9.00
2024-03-04T02:10:12.070Z,9.00
2024-03-04T02:12:40.348Z,9.00
2024-03-04T02:15:09.829Z,9.00
2024-03-04T02:17:38.030Z,8.90
2024-03-04T02:20:11.058Z,8.90
2024-03-04T02:22:41.048Z,8.90
2024-03-04T02:25:12.751Z,8.90
2024-03-04T02:27:40.956Z,8.90
2024-03-04T02:30:11.069Z,8.90
2024-03-04T02:32:40.703Z,8.80
2024-03-04T02:35:09.806Z,8.70
2024-03-04T02:37:38.733Z,8.70
2024-03-04T02:40:09.849Z,8.70
2024-03-04T02:42:38.021Z,8.70
2024-03-04T02:45:07.217Z,8.70
2024-03-04T02:47:35.225Z,8.60
2024-03-04T02:50:04.313Z,8.70
2024-03-04T02:52:32.622Z,8.70
2024-03-04T02:55:00.692Z,8.70
2024-03-04T02:57:30.601Z,8.70
2024-03-04T02:59:58.716Z,8.60
2024-03-04T03:02:26.751Z,8.60
2024-03-04T03:04:54.795Z,8.60
2024-03-04T03:07:22.821Z,8.60
2024-03-04T03:09:50.886Z,8.60
2024-03-04T03:12:19.210Z,8.60
2024-03-04T03:14:48.523Z,8.70
2024-03-04T03:17:16.996Z,8.60
2024-03-04T03:19:45.362Z,8.70
2024-03-04T03:22:13.502Z,8.70
2024-03-04T03:24:42.864Z,8.70
2024-03-04T03:27:12.382Z,8.70
2024-03-04T03:29:40.579Z,8.70
2024-03-04T03:32:09.959Z,8.70
2024-03-04T03:34:38.141Z,8.70
2024-03-04T03:37:06.489Z,8.70
2024-03-04T03:39:34.972Z,8.70
2024-03-04T03:42:05.806Z,8.70
2024-03-04T03:44:33.809Z,8.70
2024-03-04T03:47:03.066Z,8.70
2024-03-04T03:49:32.995Z,8.70
2024-03-04T03:52:01.152Z,8.70
2024-03-04T03:54:29.398Z,8.60
2024-03-04T03:56:57.358Z,8.70
2024-03-04T03:59:25.337Z,8.70
2024-03-04T04:01:54.374Z,8.60
2024-03-04T04:04:26.287Z,8.60
2024-03-04T04:06:55.806Z,8.60
2024-03-04T04:09:23.835Z,8.60
2024-03-04T04:11:51.861Z,8.60
2024-03-04T04:14:19.880Z,8.60
2024-03-04T04:16:47.919Z,8.50
2024-03-04T04:19:17.695Z,8.50
2024-03-04T04:21:45.778Z,8.60
2024-03-04T04:24:15.637Z,8.60
2024-03-04T04:26:43.719Z,8.60
2024-03-04T04:29:11.732Z,8.60
2024-03-04T04:31:40.278Z,8.60
2024-03-04T04:34:08.716Z,8.70
2024-03-04T04:36:37.067Z,8.70
2024-03-04T04:39:05.323Z,8.70
2024-03-04T04:41:36.252Z,8.70
2024-03-04T04:44:04.581Z,8.70
2024-03-04T04:46:32.701Z,8.60
2024-03-04T04:49:00.830Z,8.70
2024-03-04T04:51:28.866Z,8.60
2024-03-04T04:53:56.911Z,8.50
2024-03-04T04:56:25.052Z,8.50
2024-03-04T04:58:54.425Z,8.50
2024-03-04T05:01:29.336Z,8.40
2024-03-04T05:06:29.040Z,8.40
2024-03-04T05:08:57.011Z,8.40
2024-03-04T05:11:26.429Z,8.40
2024-03-04T05:13:55.836Z,8.50
2024-03-04T05:16:23.893Z,8.50
2024-03-04T05:18:51.950Z,8.50
2024-03-04T05:21:20.012Z,8.50
2024-03-04T05:23:48.663Z,8.50
2024-03-04T05:26:16.726Z,8.50
2024-03-04T05:28:45.888Z,8.50
2024-03-04T05:31:15.309Z,8.50
2024-03-04T05:33:43.620Z,8.50
2024-03-04T05:36:10.896Z,8.50
2024-03-04T05:38:39.006Z,8.50
2024-03-04T05:41:07.053Z,8.60
2024-03-04T05:43:35.219Z,8.60
2024-03-04T05:46:04.514Z,8.50
2024-03-04T05:48:34.355Z,8.50
2024-03-04T05:51:04.396Z,8.50
2024-03-04T05:53:32.605Z,8.40
2024-03-04T05:56:00.889Z,8.40
2024-03-04T05:58:28.969Z,8.40
2024-03-04T06:00:58.152Z,8.50
2024-03-04T06:03:26.397Z,8.40
2024-03-04T06:05:55.760Z,8.40
2024-03-04T06:08:23.787Z,8.40
2024-03-04T06:10:51.936Z,8.40
2024-03-04T06:13:20.047Z,8.30
2024-03-04T06:15:48.136Z,8.40
2024-03-04T06:18:16.163Z,8.30
2024-03-04T06:20:45.396Z,8.40
2024-03-04T06:23:14.861Z,8.40
2024-03-04T06:25:43.155Z,8.40
2024-03-04T06:28:11.222Z,8.40
2024-03-04T06:30:39.245Z,8.40
2024-03-04T06:33:07.300Z,8.30
2024-03-04T06:35:35.362Z,8.30
2024-03-04T06:38:03.483Z,8.30
2024-03-04T06:40:32.928Z,8.30
2024-03-04T06:43:00.956Z,8.30
2024-03-04T06:45:29.028Z,8.30
2024-03-04T06:48:01.294Z,8.20
2024-03-04T06:50:29.600Z,8.30
2024-03-04T06:52:57.931Z,8.30
2024-03-04T06:55:25.945Z,8.30
2024-03-04T06:57:55.297Z,8.30
2024-03-04T07:00:23.552Z,8.30
2024-03-04T07:02:51.530Z,8.30
2024-03-04T07:05:19.700Z,8.30
2024-03-04T07:07:47.822Z,8.30
2024-03-04T07:10:15.941Z,8.40
2024-03-04T07:12:44.172Z,8.40
2024-03-04T07:15:13.904Z,8.40
2024-03-04T07:17:42.049Z,8.40
2024-03-04T07:20:10.692Z,8.50
2024-03-04T07:22:39.211Z,8.50
2024-03-04T07:25:08.329Z,8.50
2024-03-04T07:27:36.437Z,8.50
2024-03-04T07:30:04.884Z,8.50
2024-03-04T07:32:34.346Z,8.50
2024-03-04T07:35:02.412Z,8.50
2024-03-04T07:37:30.469Z,8.40
2024-03-04T07:39:58.609Z,8.40
2024-03-04T07:42:26.797Z,8.40
2024-03-04T07:44:54.870Z,8.40
2024-03-04T07:47:23.006Z,8.40
2024-03-04T07:49:52.408Z,8.40
2024-03-04T07:52:20.687Z,8.50
2024-03-04T07:54:48.787Z,8.50
2024-03-04T07:57:20.581Z,8.50
2024-03-04T07:59:52.049Z,8.60
2024-03-04T08:02:20.045Z,8.60
2024-03-04T08:04:48.266Z,8.60
2024-03-04T08:07:17.813Z,8.70
2024-03-04T08:09:45.907Z,8.70
2024-03-04T08:12:14.803Z,8.70
2024-03-04T08:14:42.778Z,8.80
2024-03-04T08:17:11.958Z,8.80
2024-03-04T08:19:40.136Z,8.70
2024-03-04T08:22:08.206Z,8.80
2024-03-04T08:24:37.596Z,8.80
2024-03-04T08:27:06.307Z,8.70
2024-03-04T08:29:35.233Z,8.80
2024-03-04T08:32:05.347Z,8.90
2024-03-04T08:34:33.992Z,8.90
2024-03-04T08:37:02.531Z,8.80
2024-03-04T08:39:30.734Z,8.90
2024-03-04T08:42:00.155Z,9.00
2024-03-04T08:44:31.338Z,9.00
2024-03-04T08:46:59.451Z,9.10
2024-03-04T08:49:27.502Z,9.00
2024-03-04T08:51:57.360Z,9.00
2024-03-04T08:54:27.107Z,8.90
2024-03-04T08:56:55.066Z,8.90
2024-03-04T08:59:24.562Z,9.00
2024-03-04T09:01:53.719Z,9.10
2024-03-04T09:04:22.189Z,9.10
2024-03-04T09:06:50.553Z,9.10
2024-03-04T09:09:18.696Z,9.10
2024-03-04T09:11:46.773Z,9.10
2024-03-04T09:14:14.807Z,9.10
2024-03-04T09:16:44.239Z,9.00
2024-03-04T09:19:12.781Z,9.00
2024-03-04T09:21:40.923Z,9.00
2024-03-04T09:24:08.968Z,9.00
2024-03-04T09:26:37.561Z,9.00
2024-03-04T09:29:05.740Z,8.90
2024-03-04T09:31:35.292Z,9.10
2024-03-04T09:34:05.822Z,9.10
2024-03-04T09:36:33.947Z,9.20
2024-03-04T09:39:02.985Z,9.20
2024-03-04T09:41:32.050Z,9.20
2024-03-04T09:44:00.180Z,9.20
2024-03-04T09:46:29.212Z,9.20
2024-03-04T09:48:57.815Z,9.20
2024-03-04T09:51:29.606Z,8.90
2024-03-04T09:53:59.088Z,9.00
2024-03-04T09:56:27.894Z,9.00
2024-03-04T09:58:57.343Z,9.00
2024-03-04T10:01:26.509Z,9.00
2024-03-04T10:03:56.254Z,9.10
2024-03-04T10:06:24.265Z,9.10
2024-03-04T10:08:57.410Z,9.20
2024-03-04T10:11:25.815Z,9.20
2024-03-04T10:13:56.551Z,9.30
2024-03-04T10:16:25.081Z,9.40
2024-03-04T10:19:02.541Z,9.40
2024-03-04T10:21:31.679Z,9.30
2024-03-04T10:24:01.589Z,9.40
2024-03-04T10:26:41.925Z,9.50
2024-03-04T10:29:10.040Z,9.50
2024-03-04T10:31:41.982Z,9.60
2024-03-04T10:34:10.193Z,9.50
2024-03-04T10:36:38.185Z,9.50
2024-03-04T10:39:15.023Z,9.50
2024-03-04T10:41:45.912Z,9.40
2024-03-04T10:44:26.127Z,9.50
2024-03-04T10:46:58.940Z,9.60
2024-03-04T10:49:31.016Z,9.80
2024-03-04T10:52:08.596Z,9.90
2024-03-04T10:54:43.391Z,9.90
2024-03-04T10:57:28.664Z,10.00
2024-03-04T10:59:58.925Z,10.00
2024-03-04T11:02:37.703Z,10.10
2024-03-04T11:05:09.317Z,10.20
2024-03-04T11:07:43.653Z,10.30
2024-03-04T11:10:22.041Z,10.40
2024-03-04T11:13:04.146Z,10.40
2024-03-04T11:15:39.111Z,10.30
2024-03-04T11:18:14.829Z,10.30
2024-03-04T11:20:47.425Z,10.40
2024-03-04T11:23:17.136Z,10.50
2024-03-04T11:25:46.918Z,10.60
2024-03-04T11:28:20.202Z,10.50
2024-03-04T11:30:51.435Z,10.70
2024-03-04T11:33:39.384Z,10.90
2024-03-04T11:36:08.985Z,11.10
2024-03-04T11:38:48.114Z,11.10
2024-03-04T11:41:41.502Z,11.10
2024-03-04T11:44:09.971Z,10.90
2024-03-04T11:46:42.976Z,10.80
2024-03-04T11:49:25.113Z,10.70
2024-03-04T11:52:03.898Z,10.60
2024-03-04T11:54:45.478Z,10.70
2024-03-04T11:57:16.779Z,10.80
2024-03-04T11:59:59.180Z,10.80
2024-03-04T12:02:27.320Z,10.90
2024-03-04T12:04:59.532Z,10.90
2024-03-04T12:07:28.085Z,10.90
2024-03-04T12:10:05.604Z,11.00
2024-03-04T12:12:44.421Z,10.90
2024-03-04T12:15:12.824Z,11.00
2024-03-04T12:17:41.578Z,11.10
2024-03-04T12:20:11.374Z,11.10
2024-03-04T12:22:39.994Z,11.10
2024-03-04T12:25:09.859Z,11.00
2024-03-04T12:27:40.754Z,11.10
2024-03-04T12:30:15.087Z,11.10
2024-03-04T12:32:44.486Z,11.20
2024-03-04T12:35:20.882Z,11.20
2024-03-04T12:37:50.615Z,11.20
2024-03-04T12:40:20.085Z,11.30
2024-03-04T12:42:54.273Z,11.50
2024-03-04T12:45:26.700Z,11.50
2024-03-04T12:47:56.972Z,11.60
2024-03-04T12:50:25.789Z,11.70
2024-03-04T12:52:54.410Z,11.80
2024-03-04T12:55:22.649Z,11.60
2024-03-04T12:57:51.122Z,11.80
2024-03-04T13:00:19.548Z,11.90
2024-03-04T13:02:49.760Z,11.90
2024-03-04T13:05:18.521Z,11.80
2024-03-04T13:07:47.795Z,12.00
2024-03-04T13:10:16.853Z,11.90
2024-03-04T13:12:48.585Z,11.80
2024-03-04T13:15:17.201Z,12.00
2024-03-04T13:17:45.804Z,12.10
2024-03-04T13:20:15.938Z,11.90
2024-03-04T13:22:45.725Z,11.90
2024-03-04T13:25:14.082Z,11.80
2024-03-04T13:27:42.514Z,12.00
2024-03-04T13:30:12.401Z,12.10
2024-03-04T13:32:41.055Z,12.10
2024-03-04T13:35:10.528Z,12.00
2024-03-04T13:37:40.937Z,12.00
2024-03-04T13:40:11.630Z,12.70
2024-03-04T13:42:39.929Z,13.70
2024-03-04T13:45:08.800Z,14.00
2024-03-04T13:47:37.520Z,14.10
2024-03-04T13:50:06.113Z,13.60
2024-03-04T13:52:34.214Z,13.40
2024-03-04T13:55:03.910Z,13.70
2024-03-04T13:57:32.007Z,13.90
2024-03-04T13:59:59.985Z,14.10
2024-03-04T14:02:28.368Z,14.30
2024-03-04T14:04:56.465Z,14.50
2024-03-04T14:07:24.541Z,14.60
2024-03-04T14:09:53.113Z,14.50
2024-03-04T14:12:22.470Z,14.40
2024-03-04T14:14:50.460Z,14.60
2024-03-04T14:17:18.489Z,14.10
2024-03-04T14:19:46.590Z,14.10
2024-03-04T14:22:14.735Z,14.40
2024-03-04T14:24:42.744Z,14.20
2024-03-04T14:27:10.910Z,14.30
2024-03-04T14:29:43.590Z,14.30
2024-03-04T14:32:11.718Z,14.30
2024-03-04T14:34:39.962Z,14.20
2024-03-04T14:37:08.117Z,14.10
2024-03-04T14:39:36.137Z,14.00
2024-03-04T14:42:04.859Z,13.90
2024-03-04T14:44:32.961Z,13.80
2024-03-04T14:47:02.418Z,13.50
2024-03-04T14:49:30.855Z,13.30
2024-03-04T14:51:58.973Z,13.30
2024-03-04T14:54:27.019Z,13.00
2024-03-04T14:56:55.049Z,13.10
2024-03-04T14:59:23.189Z,13.20
2024-03-04T15:01:51.302Z,13.20
2024-03-04T15:04:20.926Z,12.90
2024-03-04T15:06:49.870Z,12.90
2024-03-04T15:09:17.909Z,12.70
2024-03-04T15:11:46.051Z,12.60
2024-03-04T15:14:14.048Z,12.60
2024-03-04T15:16:49.547Z,12.70
2024-03-04T15:19:17.827Z,12.70
2024-03-04T15:21:49.652Z,12.70
2024-03-04T15:24:17.642Z,12.70
2024-03-04T15:26:45.707Z,12.70
2024-03-04T15:29:15.703Z,12.60
2024-03-04T15:31:45.984Z,12.40
2024-03-04T15:34:15.945Z,12.30
2024-03-04T15:36:50.280Z,12.40
2024-03-04T15:39:20.567Z,12.40
2024-03-04T15:41:48.628Z,12.40
2024-03-04T15:44:16.959Z,12.30
2024-03-04T15:46:47.377Z,12.30
2024-03-04T15:49:16.527Z,12.20
2024-03-04T15:51:46.899Z,12.10
2024-03-04T15:54:15.037Z,12.00
2024-03-04T15:56:45.103Z,11.90
2024-03-04T15:59:13.687Z,11.90
2024-03-04T16:01:41.888Z,11.80
2024-03-04T16:04:10.137Z,11.60
2024-03-04T16:06:39.650Z,11.70
2024-03-04T16:09:09.489Z,11.60
2024-03-04T16:11:38.117Z,11.60
2024-03-04T16:14:07.867Z,11.60
2024-03-04T16:16:35.954Z,11.50
2024-03-04T16:19:04.950Z,11.40
2024-03-04T16:21:34.508Z,11.40
2024-03-04T16:24:02.864Z,11.30
2024-03-04T16:26:31.805Z,11.30
2024-03-04T16:29:00.828Z,11.10
2024-03-04T16:31:34.456Z,11.10
2024-03-04T16:34:03.432Z,11.00
2024-03-04T16:36:31.426Z,10.90
2024-03-04T16:38:59.424Z,10.80
2024-03-04T16:41:27.475Z,10.70
2024-03-04T16:43:55.556Z,10.70
2024-03-04T16:46:24.899Z,10.60
2024-03-04T16:48:54.881Z,10.50
2024-03-04T16:51:23.625Z,10.50
2024-03-04T16:53:51.620Z,10.40
2024-03-04T16:56:19.750Z,10.40
2024-03-04T16:58:47.838Z,10.30
2024-03-04T17:01:17.048Z,10.20
2024-03-04T17:03:45.183Z,10.10
2024-03-04T17:06:14.556Z,10.10
2024-03-04T17:08:42.613Z,10.10
2024-03-04T17:11:10.720Z,10.00
2024-03-04T17:13:38.935Z,9.90
2024-03-04T17:16:07.197Z,9.80
2024-03-04T17:18:35.346Z,9.70
2024-03-04T17:21:03.442Z,9.60
2024-03-04T17:23:33.687Z,9.50
2024-03-04T17:26:01.724Z,9.50
2024-03-04T17:28:29.799Z,9.50
2024-03-04T17:30:57.979Z,9.40
2024-03-04T17:33:27.258Z,9.40
2024-03-04T17:35:55.302Z,9.30
2024-03-04T17:38:23.292Z,9.30
2024-03-04T17:40:52.812Z,9.20
2024-03-04T17:43:21.110Z,9.10
2024-03-04T17:45:49.809Z,9.00
2024-03-04T17:48:18.100Z,9.00
2024-03-04T17:50:46.098Z,9.00
2024-03-04T17:53:15.183Z,9.00
2024-03-04T17:55:43.765Z,9.00
2024-03-04T17:58:16.963Z,9.00
2024-03-04T18:00:46.186Z,9.00
2024-03-04T18:03:14.347Z,9.00
2024-03-04T18:05:42.572Z,9.00
2024-03-04T18:08:10.589Z,9.00
2024-03-04T18:10:38.683Z,9.00
2024-03-04T18:13:07.405Z,9.00
2024-03-04T18:15:36.947Z,9.00
2024-03-04T18:18:05.541Z,9.00
2024-03-04T18:20:35.548Z,9.00
2024-03-04T18:23:03.616Z,9.00
2024-03-04T18:25:31.711Z,9.00
2024-03-04T18:27:59.750Z,9.00
2024-03-04T18:30:27.813Z,9.00
2024-03-04T18:32:57.409Z,9.00
2024-03-04T18:35:25.488Z,9.10
2024-03-04T18:37:53.544Z,9.10
2024-03-04T18:40:21.650Z,9.10
2024-03-04T18:42:50.990Z,9.00
2024-03-04T18:45:21.169Z,9.10
2024-03-04T18:47:49.269Z,9.10
2024-03-04T18:50:23.564Z,9.10
2024-03-04T18:52:53.946Z,9.10
2024-03-04T18:55:22.095Z,9.10
2024-03-04T18:57:50.140Z,9.10
2024-03-04T19:00:18.544Z,9.10
2024-03-04T19:02:46.615Z,9.10
2024-03-04T19:05:15.417Z,9.00
2024-03-04T19:07:44.855Z,9.00
2024-03-04T19:10:12.991Z,9.10
2024-03-04T19:12:41.725Z,9.10
2024-03-04T19:15:11.125Z,9.20
2024-03-04T19:17:41.051Z,9.20
2024-03-04T19:20:12.903Z,9.20
2024-03-04T19:22:41.124Z,9.20
2024-03-04T19:25:11.808Z,9.20
2024-03-04T19:27:40.071Z,9.20
2024-03-04T19:30:10.759Z,9.20
2024-03-04T19:32:40.997Z,9.20
2024-03-04T19:35:10.705Z,9.20
2024-03-04T19:37:38.744Z,9.20
2024-03-04T19:40:11.971Z,9.30
2024-03-04T19:42:41.523Z,9.30
2024-03-04T19:45:10.274Z,9.20
2024-03-04T19:47:38.338Z,9.20
2024-03-04T19:50:07.149Z,9.10
2024-03-04T19:52:35.318Z,9.20
2024-03-04T19:55:03.825Z,9.10
2024-03-04T19:57:36.436Z,9.20
2024-03-04T20:00:11.799Z,9.20
2024-03-04T20:02:39.891Z,9.10
2024-03-04T20:05:09.006Z,9.10
2024-03-04T20:07:37.549Z,9.10
2024-03-04T20:10:07.456Z,9.10
2024-03-04T20:12:35.665Z,9.20
2024-03-04T20:15:03.806Z,9.10
2024-03-04T20:17:33.515Z,9.10
2024-03-04T20:20:01.546Z,9.20
2024-03-04T20:22:29.729Z,9.20
2024-03-04T20:24:57.753Z,9.10
2024-03-04T20:27:25.805Z,9.10
2024-03-04T20:29:53.946Z,9.10
2024-03-04T20:32:21.978Z,9.00
2024-03-04T20:34:51.394Z,9.00
2024-03-04T20:37:19.462Z,9.00
2024-03-04T20:39:47.483Z,9.00
2024-03-04T20:42:15.597Z,9.00
2024-03-04T20:44:43.608Z,9.00
2024-03-04T20:47:11.642Z,8.90
2024-03-04T20:49:39.719Z,8.90
2024-03-04T20:52:09.366Z,8.90
2024-03-04T20:54:39.492Z,8.90
2024-03-04T20:57:07.857Z,8.90
2024-03-04T20:59:35.992Z,9.00
2024-03-04T21:02:04.048Z,9.00
2024-03-04T21:04:32.113Z,9.00
2024-03-04T21:07:00.148Z,9.00
2024-03-04T21:09:29.516Z,9.00
2024-03-04T21:11:57.551Z,9.00
2024-03-04T21:14:25.628Z,9.00
2024-03-04T21:16:54.258Z,9.00
2024-03-04T21:19:22.382Z,9.00
2024-03-04T21:21:50.471Z,9.00
2024-03-04T21:24:18.502Z,9.00
2024-03-04T21:26:48.003Z,8.90
2024-03-04T21:29:16.023Z,8.90
2024-03-04T21:31:44.036Z,9.00
2024-03-04T21:34:12.208Z,9.00
2024-03-04T21:36:40.189Z,9.00
2024-03-04T21:39:08.235Z,8.90
2024-03-04T21:41:36.225Z,9.00
2024-03-04T21:44:07.600Z,9.00
2024-03-04T21:46:35.706Z,8.90
2024-03-04T21:49:03.836Z,8.90
2024-03-04T21:51:31.866Z,8.90
2024-03-04T21:53:59.987Z,8.90
2024-03-04T21:56:28.016Z,8.90
2024-03-04T21:58:56.132Z,9.00
2024-03-04T22:01:25.708Z,9.00
2024-03-04T22:03:53.729Z,8.90
2024-03-04T22:06:22.327Z,9.00
2024-03-04T22:08:51.081Z,8.90
2024-03-04T22:11:19.314Z,8.90
2024-03-04T22:13:47.636Z,8.90
2024-03-04T22:16:15.808Z,8.80
2024-03-04T22:18:45.585Z,8.80
2024-03-04T22:21:13.703Z,8.80
2024-03-04T22:23:41.707Z,8.80
2024-03-04T22:26:10.018Z,8.80
2024-03-04T22:28:38.180Z,8.80
2024-03-04T22:31:07.771Z,8.80
2024-03-04T22:33:35.736Z,8.90
2024-03-04T22:36:06.043Z,8.80
2024-03-04T22:38:34.066Z,8.90
2024-03-04T22:41:03.255Z,8.90
2024-03-04T22:43:31.400Z,8.90
2024-03-04T22:45:59.418Z,8.80
2024-03-04T22:48:27.557Z,8.80
2024-03-04T22:50:55.576Z,8.70
2024-03-04T22:53:26.871Z,8.70
2024-03-04T22:55:54.973Z,8.70
2024-03-04T22:58:23.158Z,8.80
2024-03-04T23:00:57.523Z,8.70
2024-03-04T23:03:26.900Z,8.70
2024-03-04T23:05:55.184Z,8.70
2024-03-04T23:08:24.469Z,8.70
2024-03-04T23:10:54.000Z,8.70
2024-03-04T23:13:22.177Z,8.60
2024-03-04T23:15:51.164Z,8.60
2024-03-04T23:18:19.195Z,8.60
2024-03-04T23:20:48.595Z,8.50
2024-03-04T23:23:16.589Z,8.50
2024-03-04T23:25:44.657Z,8.40
2024-03-04T23:28:14.259Z,8.30
2024-03-04T23:30:43.351Z,8.30
2024-03-04T23:33:11.461Z,8.30
2024-03-04T23:35:39.479Z,8.20
2024-03-04T23:38:07.519Z,8.10
2024-03-04T23:40:35.534Z,8.00
2024-03-04T23:43:03.550Z,8.00
2024-03-04T23:45:32.888Z,8.00
2024-03-04T23:48:01.132Z,8.10
2024-03-04T23:50:29.221Z,8.10
2024-03-04T23:52:57.264Z,8.10
2024-03-04T23:55:26.198Z,8.10
2024-03-04T23:57:54.225Z,8.10
